PILOTS ONLINE: 408    ATC ONLINE: 83

SBUG

Rubem Berta Airport

Location

IATA URG
City Uruguaiana
Country  Brazil
Latitude 29° 46' 55" S
Longitude 57° 2' 17" W
Elevation 256 ft
Type Medium Airport

Map

Weather

METAR
2014/08/29 22:00
SBUG 292200Z 10005KT CAVOK 16/05 Q1016
TAF
2014/08/29 18:22
TAF SBUG 291500Z 2918/3018 07005KT CAVOK TX18/2918Z TN07/3009Z 
      RMK PC D

Runways

4/22 2625 ft / 164 ft
9/27 4921 ft / 98 ft

Outbound flights

Callsign Flying to Pilot ATD/STD ETA Aircraft

Inbound flights

Callsign Flying from Pilot ATD ETA Aircraft